sensor_id;sensor_type;location;lat;lon;timestamp;temperature;humidity
19340;HTU21D;9804;52.350;6.684;2024-02-04T00:01:47;12.71;118.99
19340;HTU21D;9804;52.350;6.684;2024-02-04T00:04:12;12.48;118.99
19340;HTU21D;9804;52.350;6.684;2024-02-04T00:06:37;12.62;118.99
19340;HTU21D;9804;52.350;6.684;2024-02-04T00:09:03;12.35;118.99
19340;HTU21D;9804;52.350;6.684;2024-02-04T00:11:32;12.08;118.99
19340;HTU21D;9804;52.350;6.684;2024-02-04T00:13:57;12.18;118.99
19340;HTU21D;9804;52.350;6.684;2024-02-04T00:16:23;12.21;118.99
19340;HTU21D;9804;52.350;6.684;2024-02-04T00:18:48;12.11;118.99
19340;HTU21D;9804;52.350;6.684;2024-02-04T00:21:14;12.13;118.99
19340;HTU21D;9804;52.350;6.684;2024-02-04T00:23:39;12.04;118.99
19340;HTU21D;9804;52.350;6.684;2024-02-04T00:26:05;12.13;118.99
19340;HTU21D;9804;52.350;6.684;2024-02-04T00:28:30;12.05;118.99
19340;HTU21D;9804;52.350;6.684;2024-02-04T00:30:56;12.19;118.99
19340;HTU21D;9804;52.350;6.684;2024-02-04T00:33:23;12.00;118.99
19340;HTU21D;9804;52.350;6.684;2024-02-04T00:35:48;12.15;118.99
19340;HTU21D;9804;52.350;6.684;2024-02-04T00:38:14;12.07;118.99
19340;HTU21D;9804;52.350;6.684;2024-02-04T00:40:39;12.02;118.99
19340;HTU21D;9804;52.350;6.684;2024-02-04T00:43:05;12.16;118.99
19340;HTU21D;9804;52.350;6.684;2024-02-04T00:45:30;12.11;118.99
19340;HTU21D;9804;52.350;6.684;2024-02-04T00:47:56;11.94;118.99
19340;HTU21D;9804;52.350;6.684;2024-02-04T00:50:22;12.07;118.99
19340;HTU21D;9804;52.350;6.684;2024-02-04T00:52:47;12.14;118.99
19340;HTU21D;9804;52.350;6.684;2024-02-04T00:55:12;12.18;118.99
19340;HTU21D;9804;52.350;6.684;2024-02-04T00:57:38;11.93;118.99
19340;HTU21D;9804;52.350;6.684;2024-02-04T01:00:04;12.06;118.99
19340;HTU21D;9804;52.350;6.684;2024-02-04T01:02:30;12.27;118.99
19340;HTU21D;9804;52.350;6.684;2024-02-04T01:04:55;12.40;118.99
19340;HTU21D;9804;52.350;6.684;2024-02-04T01:07:21;12.55;118.99
19340;HTU21D;9804;52.350;6.684;2024-02-04T01:09:46;12.32;118.99
19340;HTU21D;9804;52.350;6.684;2024-02-04T01:12:12;12.46;118.99
19340;HTU21D;9804;52.350;6.684;2024-02-04T01:14:37;12.35;118.99
19340;HTU21D;9804;52.350;6.684;2024-02-04T01:17:03;12.48;118.99
19340;HTU21D;9804;52.350;6.684;2024-02-04T01:19:28;12.35;118.99
19340;HTU21D;9804;52.350;6.684;2024-02-04T01:21:53;12.29;118.99
19340;HTU21D;9804;52.350;6.684;2024-02-04T01:24:19;12.28;118.99
19340;HTU21D;9804;52.350;6.684;2024-02-04T01:26:44;12.28;118.99
19340;HTU21D;9804;52.350;6.684;2024-02-04T01:29:10;12.22;118.99
19340;HTU21D;9804;52.350;6.684;2024-02-04T01:31:35;12.17;118.99
19340;HTU21D;9804;52.350;6.684;2024-02-04T01:34:01;12.37;118.99
19340;HTU21D;9804;52.350;6.684;2024-02-04T01:36:26;12.42;118.99
19340;HTU21D;9804;52.350;6.684;2024-02-04T01:38:52;12.28;118.99
19340;HTU21D;9804;52.350;6.684;2024-02-04T01:41:17;12.30;118.99
19340;HTU21D;9804;52.350;6.684;2024-02-04T01:43:42;12.43;118.99
19340;HTU21D;9804;52.350;6.684;2024-02-04T01:46:09;12.53;118.99
19340;HTU21D;9804;52.350;6.684;2024-02-04T01:48:35;12.72;118.99
19340;HTU21D;9804;52.350;6.684;2024-02-04T01:51:01;12.49;118.99
19340;HTU21D;9804;52.350;6.684;2024-02-04T01:53:28;12.35;118.99
19340;HTU21D;9804;52.350;6.684;2024-02-04T01:55:54;12.50;118.99
19340;HTU21D;9804;52.350;6.684;2024-02-04T01:58:21;12.42;118.99
19340;HTU21D;9804;52.350;6.684;2024-02-04T02:00:48;12.37;118.99
19340;HTU21D;9804;52.350;6.684;2024-02-04T02:03:15;12.28;118.99
19340;HTU21D;9804;52.350;6.684;2024-02-04T02:05:41;12.27;118.99
19340;HTU21D;9804;52.350;6.684;2024-02-04T02:08:07;12.46;118.99
19340;HTU21D;9804;52.350;6.684;2024-02-04T02:10:33;12.20;118.99
19340;HTU21D;9804;52.350;6.684;2024-02-04T02:13:04;12.23;118.99
19340;HTU21D;9804;52.350;6.684;2024-02-04T02:15:35;12.21;118.99
19340;HTU21D;9804;52.350;6.684;2024-02-04T02:18:16;12.18;118.99
19340;HTU21D;9804;52.350;6.684;2024-02-04T02:24:01;12.11;118.99
19340;HTU21D;9804;52.350;6.684;2024-02-04T02:26:32;12.01;118.99
19340;HTU21D;9804;52.350;6.684;2024-02-04T02:28:58;12.14;118.99
19340;HTU21D;9804;52.350;6.684;2024-02-04T02:31:24;11.98;118.99
19340;HTU21D;9804;52.350;6.684;2024-02-04T02:33:50;11.76;118.99
19340;HTU21D;9804;52.350;6.684;2024-02-04T02:36:21;11.87;118.99
19340;HTU21D;9804;52.350;6.684;2024-02-04T02:39:00;11.72;118.99
19340;HTU21D;9804;52.350;6.684;2024-02-04T02:41:30;11.70;118.99
19340;HTU21D;9804;52.350;6.684;2024-02-04T02:43:57;11.73;118.99
19340;HTU21D;9804;52.350;6.684;2024-02-04T02:46:24;11.91;118.99
19340;HTU21D;9804;52.350;6.684;2024-02-04T02:48:50;11.86;118.99
19340;HTU21D;9804;52.350;6.684;2024-02-04T02:51:16;11.76;118.99
19340;HTU21D;9804;52.350;6.684;2024-02-04T02:53:41;11.70;118.99
19340;HTU21D;9804;52.350;6.684;2024-02-04T02:56:07;11.74;118.99
19340;HTU21D;9804;52.350;6.684;2024-02-04T02:58:32;11.59;118.99
19340;HTU21D;9804;52.350;6.684;2024-02-04T03:00:58;11.73;118.99
19340;HTU21D;9804;52.350;6.684;2024-02-04T03:03:23;11.73;118.99
19340;HTU21D;9804;52.350;6.684;2024-02-04T03:05:48;11.86;118.99
19340;HTU21D;9804;52.350;6.684;2024-02-04T03:08:14;11.72;118.99
19340;HTU21D;9804;52.350;6.684;2024-02-04T03:10:39;11.73;118.99
19340;HTU21D;9804;52.350;6.684;2024-02-04T03:13:05;11.64;118.99
19340;HTU21D;9804;52.350;6.684;2024-02-04T03:15:30;11.59;118.99
19340;HTU21D;9804;52.350;6.684;2024-02-04T03:17:56;11.76;118.99
19340;HTU21D;9804;52.350;6.684;2024-02-04T03:20:21;11.71;118.99
19340;HTU21D;9804;52.350;6.684;2024-02-04T03:22:47;11.68;118.99
19340;HTU21D;9804;52.350;6.684;2024-02-04T03:25:13;11.63;118.99
19340;HTU21D;9804;52.350;6.684;2024-02-04T03:27:40;11.62;118.99
19340;HTU21D;9804;52.350;6.684;2024-02-04T03:30:06;11.37;118.99
19340;HTU21D;9804;52.350;6.684;2024-02-04T03:32:31;11.34;118.99
19340;HTU21D;9804;52.350;6.684;2024-02-04T03:35:00;11.46;118.99
19340;HTU21D;9804;52.350;6.684;2024-02-04T03:37:26;11.37;118.99
19340;HTU21D;9804;52.350;6.684;2024-02-04T03:39:51;11.42;118.99
19340;HTU21D;9804;52.350;6.684;2024-02-04T03:42:17;11.41;118.99
19340;HTU21D;9804;52.350;6.684;2024-02-04T03:44:43;11.29;118.99
19340;HTU21D;9804;52.350;6.684;2024-02-04T03:47:09;11.32;118.99
19340;HTU21D;9804;52.350;6.684;2024-02-04T03:49:34;11.20;118.99
19340;HTU21D;9804;52.350;6.684;2024-02-04T03:52:00;11.34;118.99
19340;HTU21D;9804;52.350;6.684;2024-02-04T03:54:25;11.30;118.99
19340;HTU21D;9804;52.350;6.684;2024-02-04T03:56:51;11.52;118.99
19340;HTU21D;9804;52.350;6.684;2024-02-04T03:59:16;11.53;118.99
19340;HTU21D;9804;52.350;6.684;2024-02-04T04:01:47;11.51;118.99
19340;HTU21D;9804;52.350;6.684;2024-02-04T04:04:13;11.46;118.99
19340;HTU21D;9804;52.350;6.684;2024-02-04T04:06:39;11.31;118.99
19340;HTU21D;9804;52.350;6.684;2024-02-04T04:09:04;11.16;118.99
19340;HTU21D;9804;52.350;6.684;2024-02-04T04:11:31;11.13;102.73
19340;HTU21D;9804;52.350;6.684;2024-02-04T04:13:56;11.09;66.41
19340;HTU21D;9804;52.350;6.684;2024-02-04T04:16:22;11.08;46.05
19340;HTU21D;9804;52.350;6.684;2024-02-04T04:18:48;11.22;14.45
19340;HTU21D;9804;52.350;6.684;2024-02-04T04:21:13;11.25;27.41
19340;HTU21D;9804;52.350;6.684;2024-02-04T04:23:39;11.28;17.94
19340;HTU21D;9804;52.350;6.684;2024-02-04T04:26:04;11.16;70.00
19340;HTU21D;9804;52.350;6.684;2024-02-04T04:28:30;11.26;64.85
19340;HTU21D;9804;52.350;6.684;2024-02-04T04:30:56;11.12;72.67
19340;HTU21D;9804;52.350;6.684;2024-02-04T04:33:22;11.25;84.52
19340;HTU21D;9804;52.350;6.684;2024-02-04T04:35:47;11.13;71.51
19340;HTU21D;9804;52.350;6.684;2024-02-04T04:38:13;11.28;38.75
19340;HTU21D;9804;52.350;6.684;2024-02-04T04:40:38;11.08;24.53
19340;HTU21D;9804;52.350;6.684;2024-02-04T04:43:06;11.27;5.83
19340;HTU21D;9804;52.350;6.684;2024-02-04T04:45:31;11.17;18.66
19340;HTU21D;9804;52.350;6.684;2024-02-04T04:47:57;11.13;20.38
19340;HTU21D;9804;52.350;6.684;2024-02-04T04:50:22;11.15;-4.27
19340;HTU21D;9804;52.350;6.684;2024-02-04T04:52:48;11.01;-6.00
19340;HTU21D;9804;52.350;6.684;2024-02-04T04:55:14;10.98;5.44
19340;HTU21D;9804;52.350;6.684;2024-02-04T04:57:39;10.85;30.72
19340;HTU21D;9804;52.350;6.684;2024-02-04T05:00:05;10.84;15.11
19340;HTU21D;9804;52.350;6.684;2024-02-04T05:02:35;10.81;19.63
19340;HTU21D;9804;52.350;6.684;2024-02-04T05:05:00;10.83;15.34
19340;HTU21D;9804;52.350;6.684;2024-02-04T05:07:26;10.83;21.52
19340;HTU21D;9804;52.350;6.684;2024-02-04T05:09:51;10.82;12.02
19340;HTU21D;9804;52.350;6.684;2024-02-04T05:12:17;10.84;-3.00
19340;HTU21D;9804;52.350;6.684;2024-02-04T05:14:42;10.96;-6.00
19340;HTU21D;9804;52.350;6.684;2024-02-04T05:17:08;11.01;-6.00
19340;HTU21D;9804;52.350;6.684;2024-02-04T05:19:35;10.93;-6.00
19340;HTU21D;9804;52.350;6.684;2024-02-04T05:22:00;10.95;-6.00
19340;HTU21D;9804;52.350;6.684;2024-02-04T05:24:26;10.97;-6.00
19340;HTU21D;9804;52.350;6.684;2024-02-04T05:26:51;10.94;-6.00
19340;HTU21D;9804;52.350;6.684;2024-02-04T05:29:17;11.05;-6.00
19340;HTU21D;9804;52.350;6.684;2024-02-04T05:31:42;10.99;-6.00
19340;HTU21D;9804;52.350;6.684;2024-02-04T05:34:08;10.99;-6.00
19340;HTU21D;9804;52.350;6.684;2024-02-04T05:36:34;10.92;-6.00
19340;HTU21D;9804;52.350;6.684;2024-02-04T05:39:13;11.17;-6.00
19340;HTU21D;9804;52.350;6.684;2024-02-04T05:41:39;11.10;-6.00
19340;HTU21D;9804;52.350;6.684;2024-02-04T05:44:05;11.03;-6.00
19340;HTU21D;9804;52.350;6.684;2024-02-04T05:46:31;11.05;-6.00
19340;HTU21D;9804;52.350;6.684;2024-02-04T05:48:57;11.16;-6.00
19340;HTU21D;9804;52.350;6.684;2024-02-04T05:51:22;11.00;-6.00
19340;HTU21D;9804;52.350;6.684;2024-02-04T05:53:47;11.00;-6.00
19340;HTU21D;9804;52.350;6.684;2024-02-04T05:56:13;11.03;-6.00
19340;HTU21D;9804;52.350;6.684;2024-02-04T05:58:39;10.99;-6.00
19340;HTU21D;9804;52.350;6.684;2024-02-04T06:01:05;11.13;-6.00
19340;HTU21D;9804;52.350;6.684;2024-02-04T06:03:30;11.02;-6.00
19340;HTU21D;9804;52.350;6.684;2024-02-04T06:05:55;10.98;-6.00
19340;HTU21D;9804;52.350;6.684;2024-02-04T06:08:21;11.04;-6.00
19340;HTU21D;9804;52.350;6.684;2024-02-04T06:10:46;11.03;-6.00
19340;HTU21D;9804;52.350;6.684;2024-02-04T06:13:12;10.95;-6.00
19340;HTU21D;9804;52.350;6.684;2024-02-04T06:15:37;11.04;-6.00
19340;HTU21D;9804;52.350;6.684;2024-02-04T06:18:03;10.89;-6.00
19340;HTU21D;9804;52.350;6.684;2024-02-04T06:20:28;10.87;-6.00
19340;HTU21D;9804;52.350;6.684;2024-02-04T06:22:53;11.02;-6.00
19340;HTU21D;9804;52.350;6.684;2024-02-04T06:25:19;11.02;-6.00
19340;HTU21D;9804;52.350;6.684;2024-02-04T06:27:44;10.95;-6.00
19340;HTU21D;9804;52.350;6.684;2024-02-04T06:30:10;10.99;-6.00
19340;HTU21D;9804;52.350;6.684;2024-02-04T06:32:36;10.95;-6.00
19340;HTU21D;9804;52.350;6.684;2024-02-04T06:35:01;10.97;-6.00
19340;HTU21D;9804;52.350;6.684;2024-02-04T06:37:27;10.87;-6.00
19340;HTU21D;9804;52.350;6.684;2024-02-04T06:39:53;10.99;-6.00
19340;HTU21D;9804;52.350;6.684;2024-02-04T06:42:18;10.92;-6.00
19340;HTU21D;9804;52.350;6.684;2024-02-04T06:44:47;10.90;-6.00
19340;HTU21D;9804;52.350;6.684;2024-02-04T06:47:12;11.10;-6.00
19340;HTU21D;9804;52.350;6.684;2024-02-04T06:49:43;10.84;-6.00
19340;HTU21D;9804;52.350;6.684;2024-02-04T06:52:08;10.94;-6.00
19340;HTU21D;9804;52.350;6.684;2024-02-04T06:54:34;10.86;-6.00
19340;HTU21D;9804;52.350;6.684;2024-02-04T06:56:59;10.89;-6.00
19340;HTU21D;9804;52.350;6.684;2024-02-04T06:59:25;10.97;-6.00
19340;HTU21D;9804;52.350;6.684;2024-02-04T07:01:50;10.97;-6.00
19340;HTU21D;9804;52.350;6.684;2024-02-04T07:04:15;11.10;-6.00
19340;HTU21D;9804;52.350;6.684;2024-02-04T07:06:41;11.12;-6.00
19340;HTU21D;9804;52.350;6.684;2024-02-04T07:09:06;11.12;-6.00
19340;HTU21D;9804;52.350;6.684;2024-02-04T07:11:32;10.83;-6.00
19340;HTU21D;9804;52.350;6.684;2024-02-04T07:13:58;11.03;-6.00
19340;HTU21D;9804;52.350;6.684;2024-02-04T07:16:25;11.00;-6.00
19340;HTU21D;9804;52.350;6.684;2024-02-04T07:18:51;10.85;-6.00
19340;HTU21D;9804;52.350;6.684;2024-02-04T07:21:16;11.00;-6.00
19340;HTU21D;9804;52.350;6.684;2024-02-04T07:23:42;10.98;-6.00
19340;HTU21D;9804;52.350;6.684;2024-02-04T07:26:07;10.93;-6.00
19340;HTU21D;9804;52.350;6.684;2024-02-04T07:28:34;11.00;-6.00
19340;HTU21D;9804;52.350;6.684;2024-02-04T07:30:59;11.00;-6.00
19340;HTU21D;9804;52.350;6.684;2024-02-04T07:33:24;10.96;-6.00
19340;HTU21D;9804;52.350;6.684;2024-02-04T07:35:50;11.00;-6.00
19340;HTU21D;9804;52.350;6.684;2024-02-04T07:38:16;10.99;-6.00
19340;HTU21D;9804;52.350;6.684;2024-02-04T07:40:41;11.08;-6.00
19340;HTU21D;9804;52.350;6.684;2024-02-04T07:43:08;11.22;-6.00
19340;HTU21D;9804;52.350;6.684;2024-02-04T07:45:34;11.26;-6.00
19340;HTU21D;9804;52.350;6.684;2024-02-04T07:48:00;11.18;-6.00
19340;HTU21D;9804;52.350;6.684;2024-02-04T07:50:25;11.18;-6.00
19340;HTU21D;9804;52.350;6.684;2024-02-04T07:52:51;11.24;-6.00
19340;HTU21D;9804;52.350;6.684;2024-02-04T07:55:17;11.16;-6.00
19340;HTU21D;9804;52.350;6.684;2024-02-04T07:57:43;11.22;-6.00
19340;HTU21D;9804;52.350;6.684;2024-02-04T08:00:08;11.18;-6.00
19340;HTU21D;9804;52.350;6.684;2024-02-04T08:02:36;11.40;-6.00
19340;HTU21D;9804;52.350;6.684;2024-02-04T08:05:04;11.34;-6.00
19340;HTU21D;9804;52.350;6.684;2024-02-04T08:07:29;11.33;-6.00
19340;HTU21D;9804;52.350;6.684;2024-02-04T08:09:56;11.37;-6.00
19340;HTU21D;9804;52.350;6.684;2024-02-04T08:12:21;11.31;-6.00
19340;HTU21D;9804;52.350;6.684;2024-02-04T08:14:47;11.25;-6.00
19340;HTU21D;9804;52.350;6.684;2024-02-04T08:17:12;11.42;-6.00
19340;HTU21D;9804;52.350;6.684;2024-02-04T08:19:38;11.48;-6.00
19340;HTU21D;9804;52.350;6.684;2024-02-04T08:22:03;11.47;-6.00
19340;HTU21D;9804;52.350;6.684;2024-02-04T08:24:29;11.52;-6.00
19340;HTU21D;9804;52.350;6.684;2024-02-04T08:26:57;11.52;-6.00
19340;HTU21D;9804;52.350;6.684;2024-02-04T08:29:23;11.57;-6.00
19340;HTU21D;9804;52.350;6.684;2024-02-04T08:31:49;11.53;-6.00
19340;HTU21D;9804;52.350;6.684;2024-02-04T08:34:14;11.66;-6.00
19340;HTU21D;9804;52.350;6.684;2024-02-04T08:36:39;11.61;-6.00
19340;HTU21D;9804;52.350;6.684;2024-02-04T08:39:05;11.66;-6.00
19340;HTU21D;9804;52.350;6.684;2024-02-04T08:41:30;11.83;-6.00
19340;HTU21D;9804;52.350;6.684;2024-02-04T08:43:56;11.69;-6.00
19340;HTU21D;9804;52.350;6.684;2024-02-04T08:46:21;11.70;-6.00
19340;HTU21D;9804;52.350;6.684;2024-02-04T08:48:47;11.87;-6.00
19340;HTU21D;9804;52.350;6.684;2024-02-04T08:51:12;11.87;-6.00
19340;HTU21D;9804;52.350;6.684;2024-02-04T08:53:38;11.73;-6.00
19340;HTU21D;9804;52.350;6.684;2024-02-04T08:56:06;11.86;-6.00
19340;HTU21D;9804;52.350;6.684;2024-02-04T08:58:31;11.90;-6.00
19340;HTU21D;9804;52.350;6.684;2024-02-04T09:00:56;11.87;-6.00
19340;HTU21D;9804;52.350;6.684;2024-02-04T09:03:22;11.89;-6.00
19340;HTU21D;9804;52.350;6.684;2024-02-04T09:05:48;11.81;-6.00
19340;HTU21D;9804;52.350;6.684;2024-02-04T09:08:14;11.77;-6.00
19340;HTU21D;9804;52.350;6.684;2024-02-04T09:10:39;11.99;-6.00
19340;HTU21D;9804;52.350;6.684;2024-02-04T09:13:04;11.84;-6.00
19340;HTU21D;9804;52.350;6.684;2024-02-04T09:15:30;11.93;-6.00
19340;HTU21D;9804;52.350;6.684;2024-02-04T09:17:55;11.92;-6.00
19340;HTU21D;9804;52.350;6.684;2024-02-04T09:20:21;12.02;-6.00
19340;HTU21D;9804;52.350;6.684;2024-02-04T09:22:46;12.10;-6.00
19340;HTU21D;9804;52.350;6.684;2024-02-04T09:25:12;12.08;-6.00
19340;HTU21D;9804;52.350;6.684;2024-02-04T09:27:37;12.15;-6.00
19340;HTU21D;9804;52.350;6.684;2024-02-04T09:30:03;12.02;-6.00
19340;HTU21D;9804;52.350;6.684;2024-02-04T09:32:29;11.92;-6.00
19340;HTU21D;9804;52.350;6.684;2024-02-04T09:34:54;11.92;-6.00
19340;HTU21D;9804;52.350;6.684;2024-02-04T09:37:20;12.16;-6.00
19340;HTU21D;9804;52.350;6.684;2024-02-04T09:39:45;12.26;-6.00
19340;HTU21D;9804;52.350;6.684;2024-02-04T09:42:19;12.23;-6.00
19340;HTU21D;9804;52.350;6.684;2024-02-04T09:44:46;12.28;-6.00
19340;HTU21D;9804;52.350;6.684;2024-02-04T09:47:12;12.40;-6.00
19340;HTU21D;9804;52.350;6.684;2024-02-04T09:49:38;12.32;-6.00
19340;HTU21D;9804;52.350;6.684;2024-02-04T09:52:07;12.27;-6.00
19340;HTU21D;9804;52.350;6.684;2024-02-04T09:54:35;12.25;-6.00
19340;HTU21D;9804;52.350;6.684;2024-02-04T09:57:02;12.20;-6.00
19340;HTU21D;9804;52.350;6.684;2024-02-04T09:59:28;12.42;-6.00
19340;HTU21D;9804;52.350;6.684;2024-02-04T10:01:55;12.32;-6.00
19340;HTU21D;9804;52.350;6.684;2024-02-04T10:04:20;12.20;-6.00
19340;HTU21D;9804;52.350;6.684;2024-02-04T10:06:46;12.36;-6.00
19340;HTU21D;9804;52.350;6.684;2024-02-04T10:09:11;12.43;-6.00
19340;HTU21D;9804;52.350;6.684;2024-02-04T10:11:37;12.49;-6.00
19340;HTU21D;9804;52.350;6.684;2024-02-04T10:14:02;12.33;-6.00
19340;HTU21D;9804;52.350;6.684;2024-02-04T10:16:29;12.44;-6.00
19340;HTU21D;9804;52.350;6.684;2024-02-04T10:18:54;12.40;-6.00
19340;HTU21D;9804;52.350;6.684;2024-02-04T10:21:22;12.58;-6.00
19340;HTU21D;9804;52.350;6.684;2024-02-04T10:23:49;12.42;-6.00
19340;HTU21D;9804;52.350;6.684;2024-02-04T10:26:16;12.33;-6.00
19340;HTU21D;9804;52.350;6.684;2024-02-04T10:28:42;12.29;-6.00
19340;HTU21D;9804;52.350;6.684;2024-02-04T10:31:10;12.36;-6.00
19340;HTU21D;9804;52.350;6.684;2024-02-04T10:33:39;12.36;-6.00
19340;HTU21D;9804;52.350;6.684;2024-02-04T10:36:05;12.41;-6.00
19340;HTU21D;9804;52.350;6.684;2024-02-04T10:38:34;12.55;-6.00
19340;HTU21D;9804;52.350;6.684;2024-02-04T10:41:01;12.61;-6.00
19340;HTU21D;9804;52.350;6.684;2024-02-04T10:43:31;12.71;-6.00
19340;HTU21D;9804;52.350;6.684;2024-02-04T10:46:01;12.80;-6.00
19340;HTU21D;9804;52.350;6.684;2024-02-04T10:48:29;12.85;-6.00
19340;HTU21D;9804;52.350;6.684;2024-02-04T10:50:57;12.76;-6.00
19340;HTU21D;9804;52.350;6.684;2024-02-04T10:53:25;12.77;-6.00
19340;HTU21D;9804;52.350;6.684;2024-02-04T10:55:54;12.92;-6.00
19340;HTU21D;9804;52.350;6.684;2024-02-04T10:58:24;12.91;-6.00
19340;HTU21D;9804;52.350;6.684;2024-02-04T11:00:50;12.91;-6.00
19340;HTU21D;9804;52.350;6.684;2024-02-04T11:03:17;12.97;-6.00
19340;HTU21D;9804;52.350;6.684;2024-02-04T11:05:43;13.21;-6.00
19340;HTU21D;9804;52.350;6.684;2024-02-04T11:08:10;12.90;-6.00
19340;HTU21D;9804;52.350;6.684;2024-02-04T11:10:38;12.75;-6.00
19340;HTU21D;9804;52.350;6.684;2024-02-04T11:13:05;12.79;-6.00
19340;HTU21D;9804;52.350;6.684;2024-02-04T11:15:35;12.94;-6.00
19340;HTU21D;9804;52.350;6.684;2024-02-04T11:23:50;13.02;-6.00
19340;HTU21D;9804;52.350;6.684;2024-02-04T11:26:18;13.00;-6.00
19340;HTU21D;9804;52.350;6.684;2024-02-04T11:28:44;12.96;-6.00
19340;HTU21D;9804;52.350;6.684;2024-02-04T11:31:19;13.02;-6.00
19340;HTU21D;9804;52.350;6.684;2024-02-04T11:33:45;13.08;-6.00
19340;HTU21D;9804;52.350;6.684;2024-02-04T11:36:15;12.90;-6.00
19340;HTU21D;9804;52.350;6.684;2024-02-04T11:38:43;13.06;-6.00
19340;HTU21D;9804;52.350;6.684;2024-02-04T11:41:08;13.17;-6.00
19340;HTU21D;9804;52.350;6.684;2024-02-04T11:43:37;13.15;-6.00
19340;HTU21D;9804;52.350;6.684;2024-02-04T11:46:04;13.08;-6.00
19340;HTU21D;9804;52.350;6.684;2024-02-04T11:48:30;12.96;-6.00
19340;HTU21D;9804;52.350;6.684;2024-02-04T11:50:58;13.14;-6.00
19340;HTU21D;9804;52.350;6.684;2024-02-04T11:53:24;13.14;-6.00
19340;HTU21D;9804;52.350;6.684;2024-02-04T11:55:52;13.12;-6.00
19340;HTU21D;9804;52.350;6.684;2024-02-04T11:58:18;13.12;-6.00
19340;HTU21D;9804;52.350;6.684;2024-02-04T12:00:45;13.21;-6.00
19340;HTU21D;9804;52.350;6.684;2024-02-04T12:03:10;12.93;-6.00
19340;HTU21D;9804;52.350;6.684;2024-02-04T12:05:37;12.97;-6.00
19340;HTU21D;9804;52.350;6.684;2024-02-04T12:08:07;12.93;-6.00
19340;HTU21D;9804;52.350;6.684;2024-02-04T12:10:35;12.87;-6.00
19340;HTU21D;9804;52.350;6.684;2024-02-04T12:13:05;12.97;-6.00
19340;HTU21D;9804;52.350;6.684;2024-02-04T12:15:33;13.06;-6.00
19340;HTU21D;9804;52.350;6.684;2024-02-04T12:18:09;12.90;-6.00
19340;HTU21D;9804;52.350;6.684;2024-02-04T12:20:36;13.12;-6.00
19340;HTU21D;9804;52.350;6.684;2024-02-04T12:23:05;13.02;-6.00
19340;HTU21D;9804;52.350;6.684;2024-02-04T12:25:31;12.97;-6.00
19340;HTU21D;9804;52.350;6.684;2024-02-04T12:28:01;13.01;-6.00
19340;HTU21D;9804;52.350;6.684;2024-02-04T12:30:29;13.03;-6.00
19340;HTU21D;9804;52.350;6.684;2024-02-04T12:33:03;13.19;-6.00
19340;HTU21D;9804;52.350;6.684;2024-02-04T12:35:29;13.10;-6.00
19340;HTU21D;9804;52.350;6.684;2024-02-04T12:37:56;13.18;-6.00
19340;HTU21D;9804;52.350;6.684;2024-02-04T12:40:22;13.35;-6.00
19340;HTU21D;9804;52.350;6.684;2024-02-04T12:42:55;13.03;-6.00
19340;HTU21D;9804;52.350;6.684;2024-02-04T12:45:24;13.14;-6.00
19340;HTU21D;9804;52.350;6.684;2024-02-04T12:47:51;13.17;-6.00
19340;HTU21D;9804;52.350;6.684;2024-02-04T12:50:17;13.51;-6.00
19340;HTU21D;9804;52.350;6.684;2024-02-04T12:52:44;13.23;-6.00
19340;HTU21D;9804;52.350;6.684;2024-02-04T12:55:26;13.19;-6.00
19340;HTU21D;9804;52.350;6.684;2024-02-04T12:58:07;13.37;-6.00
19340;HTU21D;9804;52.350;6.684;2024-02-04T13:00:34;13.22;-6.00
19340;HTU21D;9804;52.350;6.684;2024-02-04T13:03:00;13.33;-6.00
19340;HTU21D;9804;52.350;6.684;2024-02-04T13:05:26;13.49;-6.00
19340;HTU21D;9804;52.350;6.684;2024-02-04T13:07:54;13.50;-6.00
19340;HTU21D;9804;52.350;6.684;2024-02-04T13:10:27;13.56;-6.00
19340;HTU21D;9804;52.350;6.684;2024-02-04T13:13:06;13.21;-6.00
19340;HTU21D;9804;52.350;6.684;2024-02-04T13:15:40;13.59;-6.00
19340;HTU21D;9804;52.350;6.684;2024-02-04T13:18:05;13.54;-6.00
19340;HTU21D;9804;52.350;6.684;2024-02-04T13:20:31;13.38;-6.00
19340;HTU21D;9804;52.350;6.684;2024-02-04T13:22:57;13.47;-6.00
19340;HTU21D;9804;52.350;6.684;2024-02-04T13:25:23;13.33;-6.00
19340;HTU21D;9804;52.350;6.684;2024-02-04T13:27:49;13.45;-6.00
19340;HTU21D;9804;52.350;6.684;2024-02-04T13:30:15;13.36;-6.00
19340;HTU21D;9804;52.350;6.684;2024-02-04T13:32:41;13.39;-6.00
19340;HTU21D;9804;52.350;6.684;2024-02-04T13:35:07;13.49;-6.00
19340;HTU21D;9804;52.350;6.684;2024-02-04T13:37:39;13.58;-6.00
19340;HTU21D;9804;52.350;6.684;2024-02-04T13:40:05;13.45;-6.00
19340;HTU21D;9804;52.350;6.684;2024-02-04T13:42:32;13.37;-6.00
19340;HTU21D;9804;52.350;6.684;2024-02-04T13:45:02;13.35;-6.00
19340;HTU21D;9804;52.350;6.684;2024-02-04T13:47:28;13.34;-6.00
19340;HTU21D;9804;52.350;6.684;2024-02-04T13:49:54;13.44;-6.00
19340;HTU21D;9804;52.350;6.684;2024-02-04T13:52:19;13.38;-6.00
19340;HTU21D;9804;52.350;6.684;2024-02-04T13:54:46;13.48;-6.00
19340;HTU21D;9804;52.350;6.684;2024-02-04T13:57:11;13.59;-6.00
19340;HTU21D;9804;52.350;6.684;2024-02-04T13:59:36;13.35;-6.00
19340;HTU21D;9804;52.350;6.684;2024-02-04T14:02:02;13.40;-6.00
19340;HTU21D;9804;52.350;6.684;2024-02-04T14:04:29;13.19;-6.00
19340;HTU21D;9804;52.350;6.684;2024-02-04T14:06:54;12.81;-6.00
19340;HTU21D;9804;52.350;6.684;2024-02-04T14:09:20;12.89;-6.00
19340;HTU21D;9804;52.350;6.684;2024-02-04T14:11:45;12.80;-6.00
19340;HTU21D;9804;52.350;6.684;2024-02-04T14:14:11;12.87;-6.00
19340;HTU21D;9804;52.350;6.684;2024-02-04T14:16:36;12.91;-6.00
19340;HTU21D;9804;52.350;6.684;2024-02-04T14:19:01;12.90;-6.00
19340;HTU21D;9804;52.350;6.684;2024-02-04T14:21:27;12.63;-6.00
19340;HTU21D;9804;52.350;6.684;2024-02-04T14:23:53;12.55;-6.00
19340;HTU21D;9804;52.350;6.684;2024-02-04T14:26:19;12.60;-6.00
19340;HTU21D;9804;52.350;6.684;2024-02-04T14:28:45;12.63;5.62
19340;HTU21D;9804;52.350;6.684;2024-02-04T14:31:10;12.41;114.03
19340;HTU21D;9804;52.350;6.684;2024-02-04T14:33:36;12.32;118.99
19340;HTU21D;9804;52.350;6.684;2024-02-04T14:36:01;12.02;118.99
19340;HTU21D;9804;52.350;6.684;2024-02-04T14:38:26;12.21;118.99
19340;HTU21D;9804;52.350;6.684;2024-02-04T14:40:52;12.01;118.99
19340;HTU21D;9804;52.350;6.684;2024-02-04T14:43:18;12.03;118.99
19340;HTU21D;9804;52.350;6.684;2024-02-04T14:45:44;11.88;118.99
19340;HTU21D;9804;52.350;6.684;2024-02-04T14:48:09;11.92;118.99
19340;HTU21D;9804;52.350;6.684;2024-02-04T14:50:35;11.92;118.99
19340;HTU21D;9804;52.350;6.684;2024-02-04T14:53:00;12.02;118.99
19340;HTU21D;9804;52.350;6.684;2024-02-04T14:55:27;11.98;118.99
19340;HTU21D;9804;52.350;6.684;2024-02-04T14:57:52;11.99;118.99
19340;HTU21D;9804;52.350;6.684;2024-02-04T15:00:18;12.14;118.99
19340;HTU21D;9804;52.350;6.684;2024-02-04T15:02:43;12.16;118.99
19340;HTU21D;9804;52.350;6.684;2024-02-04T15:05:10;12.17;118.99
19340;HTU21D;9804;52.350;6.684;2024-02-04T15:07:36;12.07;118.99
19340;HTU21D;9804;52.350;6.684;2024-02-04T15:10:02;12.21;118.99
19340;HTU21D;9804;52.350;6.684;2024-02-04T15:12:27;12.34;118.99
19340;HTU21D;9804;52.350;6.684;2024-02-04T15:14:54;12.37;118.99
19340;HTU21D;9804;52.350;6.684;2024-02-04T15:17:20;12.36;118.99
19340;HTU21D;9804;52.350;6.684;2024-02-04T15:19:45;12.57;118.99
19340;HTU21D;9804;52.350;6.684;2024-02-04T15:22:12;12.56;118.99
19340;HTU21D;9804;52.350;6.684;2024-02-04T15:24:38;12.40;118.99
19340;HTU21D;9804;52.350;6.684;2024-02-04T15:27:05;12.47;118.99
19340;HTU21D;9804;52.350;6.684;2024-02-04T15:29:37;12.45;118.99